Canyonlands National Park, UT

7:45 AM MDT on July 25, 2014 (GMT -0600)
Canon Vista (KUTMOAB3) Elev 4183 ft | 38.56 °N, 109.53 °W | Change Station

Current weather conditions updated 2 seconds ago

Partly Cloudy
Partly Cloudy
75.2 °F
Feels Like 78 °F
N
0.0
Wind Variable Wind from NW
Gusts 0.0 mph

Today is forecast to be Cooler than yesterday.

Today
High -- | Low -- °F
--% Chance of Precip.
Yesterday
High -- | Low -- °F
Precip. -- in
6:13 AM 8:34 PM
Waning Crescent, 2% visible
Pressure 29.84 in
Visibility 10.0 miles
Clouds Clear
Heat Index 78 °F
Dew Point 57 °F
Humidity 53%
Rainfall 0.00 in
Snow Depth Not available.
UV 0 out of 12
Pollen 4.90 out of 12
Air Quality Not available.
Flu Activity Not available.
METAR KCNY 251253Z AUTO 05004KT 10SM CLR 26/09 A3005 RMK AO2 SLP104 T02560089 $

More Conditions Fewer Conditions

Pressure 29.84 in
Visibility 10.0 miles
Clouds Clear
Heat Index 78 °F
Dew Point 57 °F
Humidity 53%
Rainfall 0.00 in
Snow Depth Not available.
UV 0 out of 12
Pollen 4.90 out of 12
Air Quality Not available.
Flu Activity Not available.
METAR KCNY 251253Z AUTO 05004KT 10SM CLR 26/09 A3005 RMK AO2 SLP104 T02560089 $

More Conditions Fewer Conditions

10-Day Weather Forecast

Almanac

Astronomy

Jul. 25, 2014 Rise Set
Actual Time 6:13 AM MDT 8:34 PM MDT
Civil Twilight 5:43 AM MDT 9:04 PM MDT
Nautical Twilight 5:06 AM MDT 9:41 PM MDT
Astronomical Twilight 4:25 AM MDT 10:22 PM MDT
Moon 5:15 AM MDT 7:34 PM MDT
Length of Visible Light 15h 21m
Length of Day
14h 20m
Tomorrow will be 1m 40s shorter.
Waning Crescent, 2% of the Moon is Illuminated
Today
Waning Crescent
Jul 26
New
Aug 3
First Quarter
Aug 10
Full
Aug 17
Last Quarter

Today's Extremes

State Highs State Lows

Community

WunderPhotos

Upload Photos

1,737,324 photos uploaded!

Nearby

Snow Depth

Station Depth Elevation
Black Flat-U.M. Creek 0 in 9400 ft
Seeley Creek 0 in 10000 ft
Gooseberry R.S. 0 in 7920 ft
Clear Creek #2 0 in 8300 ft
Clayton Springs 0 in 10000 ft

Earthquake Activity

City Distance Mag. Time & Date
No recent earthquake activity has been reported nearby.
Minimum magnitude displayed is 2.5.

Coastal Water Temperatures

Place Temperature
No Stations Reporting

Nearby Weather Stations

Station Location Temp. Heat Index Dew Point Humidity Wind Precip. Elev Updated Type
Canon Vista, Moab, UT 75.2 °F 78 °F 57 °F 53% NW  at  0.0 mph 0.00 in / hr 4183 ft 7:45 AM MDT Rapid Fire
Monte Vista, Moab, UT 78.3 °F 79 °F 56 °F 46% SE  at  0.0 mph - / hr 4196 ft 7:42 AM MDT Normal
Castle Valley, Castle Valley, UT 68.2 °F - 55 °F 63% ENE  at  0.0 mph - / hr 4833 ft 7:41 AM MDT Normal
Castleton, Castle Valley, UT 66.5 °F - 57 °F 71% SSE  at  0.0 mph 0.00 in / hr 5830 ft 7:25 AM MDT Rapid Fire
Bridger Jack Mesa, Moab, UT 79.7 °F 79 °F 50 °F 36% SE  at  10.9 mph - / hr 5656 ft 7:38 AM MDT Normal
Pack Creek, Moab, UT 76.5 °F 78 °F 48 °F 37% East  at  2.5 mph 0.00 in / hr 6173 ft 7:45 AM MDT Rapid Fire

Show More Stations Show Fewer Stations